Terminal Aerodrome Forecast
Issued by NWS

Home | Current Version | Previous Version | Text Only | Print | Product List | Glossary On
Versions: 1 2 3 4 5 6 7 8 9 10 11 12 13 14
000
FTUS41 KPBZ 250520
TAFHLG
TAF
KHLG 250520Z 2506/2606 VRB02KT P6SM FEW100
     FM251500 23011G18KT P6SM SCT050
     FM260000 21005KT P6SM BKN100
      AMD NOT SKED=

USA.gov is the U.S. government's official web portal to all federal, state and local government web resources and services.